Aérodrome :
LOGIN :

S'inscrire | Disclaimer

   EN    FR    IT 

 










Légende :    VFR   VFR Marginal   IFR   IFR Intensif   IFR Très Intensif
Visi : 
Plafond : 
>= 8 km
>= 3000ft
5 à 8 km
1000 à 3000 ft
1500m à 5 km
500 à 1000 ft
800 à 1500m
200 à 500 ft
< 800m
< 200 ft
Symboles :   Orages  Brouillard  Fortes neiges  Fortes précipitations  Vent > 20 kt
SIGMETs :   Divers  Orages  Givrage  Turbulence  Onde Orograph.  Cendres Volcan.







- Altitude de l'aérodrome : 325 ft
- Code IATA : BES
- Voir les cartes d'approche


LFRB - Brest

DERNIER METAR :
  • 190730Z AUTO 01008KT CAVOK 17/16 Q1019 NOSIG

METARs EXPIRÉS :
  • 190700Z AUTO 01007KT 340V040 CAVOK 16/16 Q1019 NOSIG
  • 190630Z AUTO 01006KT 7000 NSC 15/15 Q1019 NOSIG
  • 190600Z AUTO 01005KT 4400 BR NSC 14/14 Q1019 BECMG 9999 NSW
  • 190530Z AUTO 01004KT 4600 BR NSC 14/13 Q1019 BECMG 9999 NSW
  • 190500Z AUTO 36005KT 6000 NSC 13/13 Q1019 NOSIG

TAF TAF LFRB
Valide du 19 à 06h jusqu'au 20 à 12h UTC


190500Z 1906/2012 36010KT 6000 NSC
BECMG 1906/1908 CAVOK
BECMG 2006/2009 SCT020
ATIS : +33 2 98 32 02 71
Pas de NOTAMs connus pour ce terrain.
2 SIGMETs publiés pour la FIR Brest (LFRR) :
 
Orages noyés dans la masse
LFRR SIGMET 2 VALID 190700/190900 LFPW
LFRR BREST FIR/UIR EMBD TS FCST WI N4415 W00445 - N4445 W00715 - N4700 W00330 - N4545 W00215 - N4415 W00445 TOP FL330 MOV NE 15KT NC=
Orages noyés dans la masse
LFRR SIGMET 1 VALID 190435/190700 LFPW
LFRR BREST FIR/UIR EMBD TS OBS WI N4430 W00530 - N4445 W00700 - N4600 W00415 - N4530 W00315 - N4430 W00530 TOP FL320 MOV NE 15KT NC=



MET'MAP, la Météo Aéronautique d'un coup d'oeil ! - Copyright ORBIFLY Décembre 2007 - Disclaimer

ORBIFLY MET'MAP TEAM :

Programmation & Développement : Alexandra Zaïnal
Conception & Développement : Baudouin d'Aumeries
Co-Programmation & Développement : Marc-Olivier Méhu
Soutien technique & logistique : Manuel Goepfert

Contact : metmap@orbifly.com




SOURCES & CREDITS :

   NOAA